WetterOnline ( https://www.wetteronline.de )

Wetter aktuell Fürstenwalde

Aktuelles Wetter: Lindenberg b. Beeskow (104m)

6-stündlich | Neueste Meldungen
Ortszeit Temperatur Wetter
Sa, 31.07. 2:00 18.5° C leicht bewölkt
Fr, 30.07. 20:00 25.1° C wolkenlos
Fr, 30.07. 14:00 24.2° C wolkig
Fr, 30.07. 8:00 15.5° C wolkenlos
Fr, 30.07. 2:00 14.8° C wolkenlos
Do, 29.07. 20:00 22.4° C wolkig
Do, 29.07. 14:00 24.0° C leicht bewölkt
Do, 29.07. 8:00 18.6° C bedeckt
Ortszeit Temperatur Wetter
Sa, 31.07. 2:10 18.2° C bewölkt
Sa, 31.07. 2:00 18.5° C leicht bewölkt
Sa, 31.07. 1:50 18.5° C leicht bewölkt
Sa, 31.07. 1:40 18.7° C fast wolkenlos
Sa, 31.07. 1:30 19.0° C wolkenlos
Sa, 31.07. 1:20 19.0° C wolkenlos
Sa, 31.07. 1:00 19.1° C fast wolkenlos
Sa, 31.07. 0:30 19.6° C wolkig
Sa, 31.07. 0:00 20.4° C wolkig
Fr, 30.07. 23:30 20.5° C wolkig
Fr, 30.07. 23:00 21.1° C fast wolkenlos
Ortszeit Relative Feuchte Sichtweite
Sa, 31.07. 2:00 67% 50 km
Fr, 30.07. 20:00 40% 65 km
Fr, 30.07. 14:00 38% 60 km
Fr, 30.07. 8:00 67% 50 km
Fr, 30.07. 2:00 65% 60 km
Do, 29.07. 20:00 41% 55 km
Do, 29.07. 14:00 41% 40 km
Do, 29.07. 8:00 77% >70 km
Ortszeit Relative Feuchte Sichtweite
Sa, 31.07. 2:10 69% -
Sa, 31.07. 2:00 67% 50 km
Sa, 31.07. 1:50 67% -
Sa, 31.07. 1:40 66% -
Sa, 31.07. 1:30 64% 50 km
Sa, 31.07. 1:20 64% -
Sa, 31.07. 1:00 64% 45 km
Sa, 31.07. 0:30 61% 55 km
Sa, 31.07. 0:00 59% 50 km
Fr, 30.07. 23:30 59% 55 km
Fr, 30.07. 23:00 54% 55 km
Ortszeit Niederschlagsmenge Niederschlagsart
Sa, 31.07. 2:00 0.0 l/m2 in 6 Std. -
Fr, 30.07. 20:00 0.0 l/m2 in 12 Std. -
Fr, 30.07. 14:00 0.0 l/m2 in 6 Std. -
Fr, 30.07. 8:00 0.0 l/m2 in 12 Std. -
Fr, 30.07. 2:00 0.0 l/m2 in 6 Std. -
Do, 29.07. 20:00 0.0 l/m2 in 12 Std. -
Do, 29.07. 14:00 0.0 l/m2 in 6 Std. -
Do, 29.07. 8:00 0.0 l/m2 in 12 Std. -
Ortszeit Niederschlagsmenge Niederschlagsart
Sa, 31.07. 2:10 keine Meldung -
Sa, 31.07. 2:00 0.0 l/m2 in 1 Std. -
Sa, 31.07. 1:50 keine Meldung -
Sa, 31.07. 1:40 keine Meldung -
Sa, 31.07. 1:30 0.0 l/m2 in 1 Std. -
Sa, 31.07. 1:20 keine Meldung -
Sa, 31.07. 1:00 0.0 l/m2 in 1 Std. -
Sa, 31.07. 0:30 0.0 l/m2 in 1 Std. -
Sa, 31.07. 0:00 0.0 l/m2 in 1 Std. -
Fr, 30.07. 23:30 keine Meldung -
Fr, 30.07. 23:00 0.0 l/m2 in 1 Std. -
Ortszeit Stärke Spitze Richtung
km/h Bft. km/h Grad Sektor
Sa, 31.07. 2:00 7 2 18 160° S
Fr, 30.07. 20:00 15 3 37 240° SW
Fr, 30.07. 14:00 22 4 43 240° SW
Fr, 30.07. 8:00 9 2 17 230° SW
Fr, 30.07. 2:00 7 2 29 260° W
Do, 29.07. 20:00 18 3 54 260° W
Do, 29.07. 14:00 24 4 46 230° SW
Do, 29.07. 8:00 14 3 22 230° SW
Ortszeit Stärke Spitze Richtung
km/h Bft. km/h Grad Sektor
Sa, 31.07. 2:10 7 2 - 170° S
Sa, 31.07. 2:00 7 2 14 160° S
Sa, 31.07. 1:50 7 2 - 160° S
Sa, 31.07. 1:40 7 2 - 150° SO
Sa, 31.07. 1:30 7 2 14 150° SO
Sa, 31.07. 1:20 7 2 - 150° SO
Sa, 31.07. 1:00 7 2 11 140° SO
Sa, 31.07. 0:30 7 2 11 140° SO
Sa, 31.07. 0:00 7 2 11 140° SO
Fr, 30.07. 23:30 7 2 11 140° SO
Fr, 30.07. 23:00 7 2 11 150° SO
Ortszeit Untergrenze Bedeckung Gattung
total tief tief mittel hoch
Sa, 31.07. 2:00 3600 m 3/8 3/8 - - -
Fr, 30.07. 20:00 - 0/8 0/8 - - -
Fr, 30.07. 14:00 1500 m 5/8 5/8 - - -
Fr, 30.07. 8:00 - 0/8 0/8 - - -
Fr, 30.07. 2:00 - 0/8 0/8 - - -
Do, 29.07. 20:00 2700 m 5/8 5/8 - - -
Do, 29.07. 14:00 1500 m 4/8 4/8 - - -
Do, 29.07. 8:00 2700 m 8/8 8/8 - - -
Ortszeit Bedeckungsgrad in Achtel und Wolkenuntergrenze
Sa, 31.07. 2:10 7(3300m)
Sa, 31.07. 2:00 3(3600m)
Sa, 31.07. 1:50 3(3600m)
Sa, 31.07. 1:40 1(3600m)
Sa, 31.07. 1:30 1(3600m)
Sa, 31.07. 1:20 keine Wolken
Sa, 31.07. 1:00 1(8700m)
Sa, 31.07. 0:30 8(9000m) 8(9000m)
Sa, 31.07. 0:00 5(9000m) 8(9000m) 8(10500m)
Fr, 30.07. 23:30 7(10500m) 7(10500m)
Fr, 30.07. 23:00 2(10500m)
Ortszeit Luftdruck NN (hPa) Tendenz (hPa in 3 Std.)
Sa, 31.07. 2:00 1006 - 0,6
Fr, 30.07. 20:00 1006 - 1,1
Fr, 30.07. 14:00 1009 - 1,2
Fr, 30.07. 8:00 1011 + 0,1
Fr, 30.07. 2:00 1011 + 0,1
Do, 29.07. 20:00 1010 + 0,3
Do, 29.07. 14:00 1010 - 0,3
Do, 29.07. 8:00 1011 + 0,4
Ortszeit Luftdruck NN (hPa) Tendenz (hPa in 3 Std.)
Sa, 31.07. 2:10 1006 keine Meldung
Sa, 31.07. 2:00 1006 - 0,6
Sa, 31.07. 1:50 1006 keine Meldung
Sa, 31.07. 1:40 1006 keine Meldung
Sa, 31.07. 1:30 1006 - 0,8
Sa, 31.07. 1:20 1006 keine Meldung
Sa, 31.07. 1:00 1006 - 0,6
Sa, 31.07. 0:30 1006 - 0,6
Sa, 31.07. 0:00 1006 - 0,4
Fr, 30.07. 23:30 1006 - 0,3
Fr, 30.07. 23:00 1006 - 0,3
Ortszeit Schneehöhe (cm)
Sa, 31.07. 2:00 -
Fr, 30.07. 20:00 -
Fr, 30.07. 14:00 -
Fr, 30.07. 8:00 -
Fr, 30.07. 2:00 -
Do, 29.07. 20:00 -
Do, 29.07. 14:00 -
Do, 29.07. 8:00 -
Ortszeit Schneehöhe (cm)
Sa, 31.07. 2:10 -
Sa, 31.07. 2:00 -
Sa, 31.07. 1:50 -
Sa, 31.07. 1:40 -
Sa, 31.07. 1:30 -
Sa, 31.07. 1:20 -
Sa, 31.07. 1:00 -
Sa, 31.07. 0:30 -
Sa, 31.07. 0:00 -
Fr, 30.07. 23:30 -
Fr, 30.07. 23:00 -
Link zu dieser Seite / Seite empfehlen

Das Wetter in ...